sensor_id;sensor_type;location;lat;lon;timestamp;pressure;altitude;pressure_sealevel;temperature;humidity
76084;BME280;64789;0.000;0.000;2023-10-08T00:01:08;94109.13;;;10.31;53.34
76084;BME280;64789;0.000;0.000;2023-10-08T00:03:36;94097.41;;;9.99;54.17
76084;BME280;64789;0.000;0.000;2023-10-08T00:06:03;94100.09;;;10.25;53.54
76084;BME280;64789;0.000;0.000;2023-10-08T00:08:35;94097.78;;;9.48;55.08
76084;BME280;64789;0.000;0.000;2023-10-08T00:11:00;94084.34;;;9.93;53.35
76084;BME280;64789;0.000;0.000;2023-10-08T00:13:31;94077.50;;;10.15;52.68
76084;BME280;64789;0.000;0.000;2023-10-08T00:16:08;94084.50;;;10.71;51.43
76084;BME280;64789;0.000;0.000;2023-10-08T00:18:41;94083.09;;;10.85;50.44
76084;BME280;64789;0.000;0.000;2023-10-08T00:21:14;94081.41;;;11.10;50.17
76084;BME280;64789;0.000;0.000;2023-10-08T00:23:39;94078.22;;;10.78;50.14
76084;BME280;64789;0.000;0.000;2023-10-08T00:26:07;94085.53;;;10.88;50.14
76084;BME280;64789;0.000;0.000;2023-10-08T00:28:33;94080.84;;;11.11;50.31
76084;BME280;64789;0.000;0.000;2023-10-08T00:31:01;94071.31;;;10.50;51.61
76084;BME280;64789;0.000;0.000;2023-10-08T00:33:32;94081.25;;;10.38;51.66
76084;BME280;64789;0.000;0.000;2023-10-08T00:35:57;94076.50;;;10.26;52.40
76084;BME280;64789;0.000;0.000;2023-10-08T00:38:23;94073.38;;;10.78;51.84
76084;BME280;64789;0.000;0.000;2023-10-08T00:40:57;94076.84;;;10.71;50.80
76084;BME280;64789;0.000;0.000;2023-10-08T00:43:32;94075.84;;;9.99;53.45
76084;BME280;64789;0.000;0.000;2023-10-08T00:46:04;94069.56;;;10.06;52.63
76084;BME280;64789;0.000;0.000;2023-10-08T00:48:35;94070.50;;;9.54;53.54
76084;BME280;64789;0.000;0.000;2023-10-08T00:51:02;94060.69;;;9.74;53.14
76084;BME280;64789;0.000;0.000;2023-10-08T00:53:46;94054.53;;;10.09;53.32
76084;BME280;64789;0.000;0.000;2023-10-08T00:56:15;94053.72;;;10.42;52.14
76084;BME280;64789;0.000;0.000;2023-10-08T00:58:45;94046.03;;;10.56;52.07
76084;BME280;64789;0.000;0.000;2023-10-08T01:01:14;94053.19;;;10.72;52.04
76084;BME280;64789;0.000;0.000;2023-10-08T01:03:42;94051.25;;;10.88;51.72
76084;BME280;64789;0.000;0.000;2023-10-08T01:06:13;94059.28;;;10.91;51.24
76084;BME280;64789;0.000;0.000;2023-10-08T01:08:40;94056.53;;;10.99;51.67
76084;BME280;64789;0.000;0.000;2023-10-08T01:11:16;94052.56;;;10.59;52.82
76084;BME280;64789;0.000;0.000;2023-10-08T01:13:41;94054.47;;;10.64;51.83
76084;BME280;64789;0.000;0.000;2023-10-08T01:16:11;94046.16;;;9.55;55.04
76084;BME280;64789;0.000;0.000;2023-10-08T01:18:36;94049.63;;;10.02;54.25
76084;BME280;64789;0.000;0.000;2023-10-08T01:21:08;94049.47;;;10.08;53.27
76084;BME280;64789;0.000;0.000;2023-10-08T01:23:36;94053.53;;;10.20;53.09
76084;BME280;64789;0.000;0.000;2023-10-08T01:26:04;94042.63;;;10.09;54.31
76084;BME280;64789;0.000;0.000;2023-10-08T01:28:37;94042.25;;;9.37;55.24
76084;BME280;64789;0.000;0.000;2023-10-08T01:31:02;94034.97;;;9.68;55.43
76084;BME280;64789;0.000;0.000;2023-10-08T01:33:29;94033.50;;;10.08;54.36
76084;BME280;64789;0.000;0.000;2023-10-08T01:35:56;94053.34;;;9.84;54.52
76084;BME280;64789;0.000;0.000;2023-10-08T01:38:30;94043.38;;;10.09;53.59
76084;BME280;64789;0.000;0.000;2023-10-08T01:40:58;94037.47;;;10.13;53.61
76084;BME280;64789;0.000;0.000;2023-10-08T01:43:44;94032.09;;;9.27;56.43
76084;BME280;64789;0.000;0.000;2023-10-08T01:46:11;94043.19;;;9.73;55.23
76084;BME280;64789;0.000;0.000;2023-10-08T01:48:37;94037.41;;;9.51;55.65
76084;BME280;64789;0.000;0.000;2023-10-08T01:51:03;94044.22;;;9.83;55.65
76084;BME280;64789;0.000;0.000;2023-10-08T01:53:35;94052.16;;;9.93;55.53
76084;BME280;64789;0.000;0.000;2023-10-08T01:56:01;94056.03;;;10.10;55.53
76084;BME280;64789;0.000;0.000;2023-10-08T01:58:29;94055.63;;;10.06;55.00
76084;BME280;64789;0.000;0.000;2023-10-08T02:00:55;94054.03;;;9.77;55.75
76084;BME280;64789;0.000;0.000;2023-10-08T02:03:25;94052.41;;;9.81;56.41
76084;BME280;64789;0.000;0.000;2023-10-08T02:05:53;94052.47;;;9.89;55.97
76084;BME280;64789;0.000;0.000;2023-10-08T02:08:24;94043.84;;;9.46;57.22
76084;BME280;64789;0.000;0.000;2023-10-08T02:10:51;94046.59;;;8.86;59.24
76084;BME280;64789;0.000;0.000;2023-10-08T02:13:18;94051.44;;;8.72;60.82
76084;BME280;64789;0.000;0.000;2023-10-08T02:15:44;94038.16;;;8.91;59.37
76084;BME280;64789;0.000;0.000;2023-10-08T02:18:10;94049.25;;;9.31;58.65
76084;BME280;64789;0.000;0.000;2023-10-08T02:20:36;94041.63;;;9.31;57.59
76084;BME280;64789;0.000;0.000;2023-10-08T02:23:02;94040.19;;;9.71;56.95
76084;BME280;64789;0.000;0.000;2023-10-08T02:25:29;94035.78;;;8.95;58.89
76084;BME280;64789;0.000;0.000;2023-10-08T02:27:55;94032.78;;;8.54;58.93
76084;BME280;64789;0.000;0.000;2023-10-08T02:30:20;94026.13;;;8.96;58.60
76084;BME280;64789;0.000;0.000;2023-10-08T02:32:46;94031.59;;;8.76;58.94
76084;BME280;64789;0.000;0.000;2023-10-08T02:35:11;94036.63;;;9.03;57.95
76084;BME280;64789;0.000;0.000;2023-10-08T02:37:38;94027.53;;;8.77;59.44
76084;BME280;64789;0.000;0.000;2023-10-08T02:40:09;94026.16;;;8.57;60.12
76084;BME280;64789;0.000;0.000;2023-10-08T02:42:56;94029.34;;;9.00;58.58
76084;BME280;64789;0.000;0.000;2023-10-08T02:45:26;94022.28;;;8.86;60.03
76084;BME280;64789;0.000;0.000;2023-10-08T02:47:52;94017.53;;;9.20;58.20
76084;BME280;64789;0.000;0.000;2023-10-08T02:50:18;94024.81;;;9.10;58.87
76084;BME280;64789;0.000;0.000;2023-10-08T02:52:44;94015.09;;;9.04;59.17
76084;BME280;64789;0.000;0.000;2023-10-08T02:55:10;94023.78;;;9.34;57.58
76084;BME280;64789;0.000;0.000;2023-10-08T02:57:50;94013.97;;;9.54;56.46
76084;BME280;64789;0.000;0.000;2023-10-08T03:00:16;94019.09;;;8.82;59.38
76084;BME280;64789;0.000;0.000;2023-10-08T03:02:46;94024.34;;;8.73;59.95
76084;BME280;64789;0.000;0.000;2023-10-08T03:05:12;94029.81;;;8.65;59.91
76084;BME280;64789;0.000;0.000;2023-10-08T03:07:43;94033.97;;;8.45;60.80
76084;BME280;64789;0.000;0.000;2023-10-08T03:10:09;94030.84;;;8.49;61.06
76084;BME280;64789;0.000;0.000;2023-10-08T03:12:45;94030.44;;;8.84;59.33
76084;BME280;64789;0.000;0.000;2023-10-08T03:15:16;94028.94;;;8.96;59.65
76084;BME280;64789;0.000;0.000;2023-10-08T03:17:55;94031.38;;;9.13;58.74
76084;BME280;64789;0.000;0.000;2023-10-08T03:20:23;94030.22;;;8.69;60.19
76084;BME280;64789;0.000;0.000;2023-10-08T03:23:15;94036.88;;;8.53;60.16
76084;BME280;64789;0.000;0.000;2023-10-08T03:26:02;94039.94;;;8.36;60.37
76084;BME280;64789;0.000;0.000;2023-10-08T03:28:37;94028.72;;;8.55;60.01
76084;BME280;64789;0.000;0.000;2023-10-08T03:31:06;94027.44;;;8.82;59.23
76084;BME280;64789;0.000;0.000;2023-10-08T03:33:39;94027.84;;;8.99;58.42
76084;BME280;64789;0.000;0.000;2023-10-08T03:36:06;94028.81;;;9.02;59.15
76084;BME280;64789;0.000;0.000;2023-10-08T03:38:48;94031.75;;;9.30;58.18
76084;BME280;64789;0.000;0.000;2023-10-08T03:41:23;94028.59;;;9.47;57.76
76084;BME280;64789;0.000;0.000;2023-10-08T03:43:55;94030.50;;;9.52;57.56
76084;BME280;64789;0.000;0.000;2023-10-08T03:46:28;94019.03;;;9.55;56.78
76084;BME280;64789;0.000;0.000;2023-10-08T03:48:54;94020.97;;;9.00;58.26
76084;BME280;64789;0.000;0.000;2023-10-08T03:51:23;94021.53;;;8.99;58.71
76084;BME280;64789;0.000;0.000;2023-10-08T03:53:52;94017.91;;;8.65;60.15
76084;BME280;64789;0.000;0.000;2023-10-08T03:56:28;94005.81;;;8.62;59.35
76084;BME280;64789;0.000;0.000;2023-10-08T03:58:57;94004.84;;;8.59;59.64
76084;BME280;64789;0.000;0.000;2023-10-08T04:01:28;94006.44;;;8.68;59.15
76084;BME280;64789;0.000;0.000;2023-10-08T04:03:58;93999.34;;;8.93;58.72
76084;BME280;64789;0.000;0.000;2023-10-08T04:06:28;94002.50;;;9.23;57.77
76084;BME280;64789;0.000;0.000;2023-10-08T04:09:00;93996.78;;;9.63;56.72
76084;BME280;64789;0.000;0.000;2023-10-08T04:11:38;93999.38;;;9.61;56.97
76084;BME280;64789;0.000;0.000;2023-10-08T04:14:23;94001.81;;;9.44;56.97
76084;BME280;64789;0.000;0.000;2023-10-08T04:16:49;94005.47;;;9.39;57.56
76084;BME280;64789;0.000;0.000;2023-10-08T04:19:18;94004.63;;;9.31;57.60
76084;BME280;64789;0.000;0.000;2023-10-08T04:21:44;94004.84;;;9.19;58.19
76084;BME280;64789;0.000;0.000;2023-10-08T04:24:09;94001.47;;;9.13;58.55
76084;BME280;64789;0.000;0.000;2023-10-08T04:26:36;94001.03;;;9.09;58.31
76084;BME280;64789;0.000;0.000;2023-10-08T04:29:06;93997.91;;;9.13;58.18
76084;BME280;64789;0.000;0.000;2023-10-08T04:31:32;94002.13;;;8.93;58.85
76084;BME280;64789;0.000;0.000;2023-10-08T04:34:05;94015.09;;;9.04;58.55
76084;BME280;64789;0.000;0.000;2023-10-08T04:36:49;94006.00;;;8.51;60.36
76084;BME280;64789;0.000;0.000;2023-10-08T04:39:23;94004.50;;;8.37;61.20
76084;BME280;64789;0.000;0.000;2023-10-08T04:41:51;94001.63;;;7.84;63.54
76084;BME280;64789;0.000;0.000;2023-10-08T04:44:19;94006.06;;;8.19;62.54
76084;BME280;64789;0.000;0.000;2023-10-08T04:46:47;93998.38;;;8.25;61.79
76084;BME280;64789;0.000;0.000;2023-10-08T04:49:14;93994.25;;;8.58;61.54
76084;BME280;64789;0.000;0.000;2023-10-08T04:51:54;93998.53;;;8.59;61.77
76084;BME280;64789;0.000;0.000;2023-10-08T04:54:28;93995.50;;;8.83;61.04
76084;BME280;64789;0.000;0.000;2023-10-08T04:56:58;94005.56;;;8.34;63.18
76084;BME280;64789;0.000;0.000;2023-10-08T04:59:25;94012.47;;;8.46;62.94
76084;BME280;64789;0.000;0.000;2023-10-08T05:02:00;94016.16;;;8.88;61.27
76084;BME280;64789;0.000;0.000;2023-10-08T05:04:49;94005.66;;;9.07;61.26
76084;BME280;64789;0.000;0.000;2023-10-08T05:07:21;94013.31;;;9.27;60.11
76084;BME280;64789;0.000;0.000;2023-10-08T05:10:05;94006.69;;;9.17;60.39
76084;BME280;64789;0.000;0.000;2023-10-08T05:12:31;94012.06;;;9.15;60.40
76084;BME280;64789;0.000;0.000;2023-10-08T05:15:03;94014.25;;;8.96;62.03
76084;BME280;64789;0.000;0.000;2023-10-08T05:17:47;94007.59;;;8.99;61.88
76084;BME280;64789;0.000;0.000;2023-10-08T05:20:19;94009.00;;;8.79;61.22
76084;BME280;64789;0.000;0.000;2023-10-08T05:23:11;94007.28;;;8.89;61.00
76084;BME280;64789;0.000;0.000;2023-10-08T05:25:58;94001.47;;;9.13;61.23
76084;BME280;64789;0.000;0.000;2023-10-08T05:28:34;94002.72;;;9.25;60.76
76084;BME280;64789;0.000;0.000;2023-10-08T05:31:32;94011.69;;;9.86;60.48
76084;BME280;64789;0.000;0.000;2023-10-08T05:34:07;94009.34;;;9.90;58.82
76084;BME280;64789;0.000;0.000;2023-10-08T05:37:01;94014.03;;;9.95;58.14
76084;BME280;64789;0.000;0.000;2023-10-08T05:39:29;94012.09;;;10.11;56.85
76084;BME280;64789;0.000;0.000;2023-10-08T05:42:08;94021.72;;;10.43;56.39
76084;BME280;64789;0.000;0.000;2023-10-08T05:44:57;94025.97;;;10.65;56.90
76084;BME280;64789;0.000;0.000;2023-10-08T05:47:35;94028.50;;;10.55;56.47
76084;BME280;64789;0.000;0.000;2023-10-08T05:50:01;94028.25;;;11.02;55.20
76084;BME280;64789;0.000;0.000;2023-10-08T05:52:43;94032.97;;;11.15;54.76
76084;BME280;64789;0.000;0.000;2023-10-08T05:55:29;94027.22;;;11.28;54.07
76084;BME280;64789;0.000;0.000;2023-10-08T05:58:06;94038.28;;;11.41;54.03
76084;BME280;64789;0.000;0.000;2023-10-08T06:00:44;94034.41;;;11.52;53.04
76084;BME280;64789;0.000;0.000;2023-10-08T06:03:19;94042.84;;;11.67;53.46
76084;BME280;64789;0.000;0.000;2023-10-08T06:06:14;94042.97;;;12.05;53.26
76084;BME280;64789;0.000;0.000;2023-10-08T06:08:40;94041.66;;;11.91;52.64
76084;BME280;64789;0.000;0.000;2023-10-08T06:11:35;94037.94;;;12.11;52.14
76084;BME280;64789;0.000;0.000;2023-10-08T06:14:10;94044.50;;;12.36;52.08
76084;BME280;64789;0.000;0.000;2023-10-08T06:16:45;94043.38;;;12.46;51.36
76084;BME280;64789;0.000;0.000;2023-10-08T06:19:12;94039.66;;;12.36;50.71
76084;BME280;64789;0.000;0.000;2023-10-08T06:21:39;94039.44;;;12.49;50.47
76084;BME280;64789;0.000;0.000;2023-10-08T06:24:05;94035.91;;;12.64;50.91
76084;BME280;64789;0.000;0.000;2023-10-08T06:26:42;94030.41;;;13.04;50.59
76084;BME280;64789;0.000;0.000;2023-10-08T06:29:09;94038.09;;;13.11;48.11
76084;BME280;64789;0.000;0.000;2023-10-08T06:31:45;94033.94;;;13.35;49.03
76084;BME280;64789;0.000;0.000;2023-10-08T06:34:16;94043.03;;;13.90;49.42
76084;BME280;64789;0.000;0.000;2023-10-08T06:36:41;94046.63;;;14.15;47.94
76084;BME280;64789;0.000;0.000;2023-10-08T06:39:07;94043.03;;;14.22;46.91
76084;BME280;64789;0.000;0.000;2023-10-08T06:41:37;94043.53;;;14.28;47.36
76084;BME280;64789;0.000;0.000;2023-10-08T06:44:03;94039.53;;;14.14;46.98
76084;BME280;64789;0.000;0.000;2023-10-08T06:46:29;94033.03;;;14.29;47.83
76084;BME280;64789;0.000;0.000;2023-10-08T06:49:02;94035.31;;;14.55;47.17
76084;BME280;64789;0.000;0.000;2023-10-08T06:51:28;94037.84;;;14.43;46.79
76084;BME280;64789;0.000;0.000;2023-10-08T06:53:56;94034.59;;;14.55;46.88
76084;BME280;64789;0.000;0.000;2023-10-08T06:56:25;94040.84;;;14.87;45.74
76084;BME280;64789;0.000;0.000;2023-10-08T06:58:51;94032.88;;;15.01;45.60
76084;BME280;64789;0.000;0.000;2023-10-08T07:01:20;94034.78;;;15.33;44.84
76084;BME280;64789;0.000;0.000;2023-10-08T07:03:50;94045.16;;;15.47;44.31
76084;BME280;64789;0.000;0.000;2023-10-08T07:06:17;94048.81;;;15.57;44.32
76084;BME280;64789;0.000;0.000;2023-10-08T07:08:51;94042.97;;;15.55;44.14
76084;BME280;64789;0.000;0.000;2023-10-08T07:11:20;94035.25;;;15.22;44.13
76084;BME280;64789;0.000;0.000;2023-10-08T07:13:47;94046.28;;;15.78;44.19
76084;BME280;64789;0.000;0.000;2023-10-08T07:16:12;94037.09;;;15.78;43.54
76084;BME280;64789;0.000;0.000;2023-10-08T07:18:43;94039.31;;;15.97;43.33
76084;BME280;64789;0.000;0.000;2023-10-08T07:21:14;94044.69;;;15.85;42.85
76084;BME280;64789;0.000;0.000;2023-10-08T07:23:39;94047.97;;;15.64;42.74
76084;BME280;64789;0.000;0.000;2023-10-08T07:26:25;94043.16;;;15.74;43.17
76084;BME280;64789;0.000;0.000;2023-10-08T07:28:51;94036.34;;;15.77;43.39
76084;BME280;64789;0.000;0.000;2023-10-08T07:31:21;94033.19;;;15.73;43.15
76084;BME280;64789;0.000;0.000;2023-10-08T07:33:51;94028.28;;;16.18;42.95
76084;BME280;64789;0.000;0.000;2023-10-08T07:36:24;94015.88;;;16.30;42.84
76084;BME280;64789;0.000;0.000;2023-10-08T07:38:50;94020.25;;;16.51;41.59
76084;BME280;64789;0.000;0.000;2023-10-08T07:41:16;94024.56;;;16.78;41.39
76084;BME280;64789;0.000;0.000;2023-10-08T07:43:42;94024.56;;;16.78;41.82
76084;BME280;64789;0.000;0.000;2023-10-08T07:46:08;94019.53;;;16.86;41.63
76084;BME280;64789;0.000;0.000;2023-10-08T07:48:34;94011.22;;;16.98;41.18
76084;BME280;64789;0.000;0.000;2023-10-08T07:51:00;94016.63;;;17.32;40.29
76084;BME280;64789;0.000;0.000;2023-10-08T07:53:27;94018.06;;;17.04;40.72
76084;BME280;64789;0.000;0.000;2023-10-08T07:56:03;94020.41;;;16.79;41.00
76084;BME280;64789;0.000;0.000;2023-10-08T07:58:32;94008.28;;;16.96;40.64
76084;BME280;64789;0.000;0.000;2023-10-08T08:01:02;94011.88;;;17.16;40.72
76084;BME280;64789;0.000;0.000;2023-10-08T08:03:31;94013.56;;;17.57;39.59
76084;BME280;64789;0.000;0.000;2023-10-08T08:06:05;94003.16;;;17.59;39.60
76084;BME280;64789;0.000;0.000;2023-10-08T08:08:35;94005.81;;;17.67;39.71
76084;BME280;64789;0.000;0.000;2023-10-08T08:11:04;94006.41;;;17.75;38.55
76084;BME280;64789;0.000;0.000;2023-10-08T08:13:37;94006.84;;;17.62;39.51
76084;BME280;64789;0.000;0.000;2023-10-08T08:16:04;93991.41;;;17.63;39.53
76084;BME280;64789;0.000;0.000;2023-10-08T08:18:45;93991.38;;;17.82;39.44
76084;BME280;64789;0.000;0.000;2023-10-08T08:21:12;93996.72;;;17.78;38.85
76084;BME280;64789;0.000;0.000;2023-10-08T08:23:41;93985.56;;;17.90;38.25
76084;BME280;64789;0.000;0.000;2023-10-08T08:26:16;93982.00;;;17.89;38.76
76084;BME280;64789;0.000;0.000;2023-10-08T08:28:58;93977.16;;;18.20;36.15
76084;BME280;64789;0.000;0.000;2023-10-08T08:31:25;93971.66;;;18.13;38.00
76084;BME280;64789;0.000;0.000;2023-10-08T08:33:52;93981.03;;;18.15;36.51
76084;BME280;64789;0.000;0.000;2023-10-08T08:36:20;93974.75;;;18.26;36.46
76084;BME280;64789;0.000;0.000;2023-10-08T08:38:47;93977.69;;;18.38;37.67
76084;BME280;64789;0.000;0.000;2023-10-08T08:41:13;93972.97;;;18.62;37.31
76084;BME280;64789;0.000;0.000;2023-10-08T08:43:43;93974.50;;;18.84;35.77
76084;BME280;64789;0.000;0.000;2023-10-08T08:46:10;93963.88;;;18.94;35.73
76084;BME280;64789;0.000;0.000;2023-10-08T08:48:41;93966.56;;;18.92;35.80
76084;BME280;64789;0.000;0.000;2023-10-08T08:51:07;93971.50;;;18.91;36.27
76084;BME280;64789;0.000;0.000;2023-10-08T08:53:35;93967.19;;;19.12;34.54
76084;BME280;64789;0.000;0.000;2023-10-08T08:56:01;93967.25;;;19.23;35.31
76084;BME280;64789;0.000;0.000;2023-10-08T08:58:32;93966.31;;;19.30;34.81
76084;BME280;64789;0.000;0.000;2023-10-08T09:00:58;93957.00;;;19.39;35.18
76084;BME280;64789;0.000;0.000;2023-10-08T09:03:24;93962.25;;;19.54;35.02
76084;BME280;64789;0.000;0.000;2023-10-08T09:05:56;93966.28;;;19.73;32.80
76084;BME280;64789;0.000;0.000;2023-10-08T09:08:22;93957.50;;;19.68;34.30
76084;BME280;64789;0.000;0.000;2023-10-08T09:10:49;93966.53;;;19.77;33.71
76084;BME280;64789;0.000;0.000;2023-10-08T09:13:21;93961.03;;;19.90;32.82
76084;BME280;64789;0.000;0.000;2023-10-08T09:15:50;93954.06;;;20.14;32.77
76084;BME280;64789;0.000;0.000;2023-10-08T09:18:17;93956.41;;;20.18;33.78
76084;BME280;64789;0.000;0.000;2023-10-08T09:20:43;93952.03;;;20.26;33.34
76084;BME280;64789;0.000;0.000;2023-10-08T09:23:13;93952.88;;;20.29;32.82
76084;BME280;64789;0.000;0.000;2023-10-08T09:25:39;93946.63;;;20.54;31.77
76084;BME280;64789;0.000;0.000;2023-10-08T09:28:05;93947.09;;;20.50;30.14
76084;BME280;64789;0.000;0.000;2023-10-08T09:30:36;93954.25;;;20.74;31.02
76084;BME280;64789;0.000;0.000;2023-10-08T09:33:04;93956.22;;;20.83;30.18
76084;BME280;64789;0.000;0.000;2023-10-08T09:35:30;93952.16;;;21.10;28.89
76084;BME280;64789;0.000;0.000;2023-10-08T09:37:56;93948.41;;;21.30;27.85
76084;BME280;64789;0.000;0.000;2023-10-08T09:40:23;93947.53;;;21.39;29.04
76084;BME280;64789;0.000;0.000;2023-10-08T09:42:49;93956.00;;;21.51;28.26
76084;BME280;64789;0.000;0.000;2023-10-08T09:45:15;93950.53;;;21.30;29.50
76084;BME280;64789;0.000;0.000;2023-10-08T09:47:48;93944.63;;;21.14;28.87
76084;BME280;64789;0.000;0.000;2023-10-08T09:50:14;93940.75;;;21.21;28.34
76084;BME280;64789;0.000;0.000;2023-10-08T09:55:12;93939.34;;;21.45;28.05
76084;BME280;64789;0.000;0.000;2023-10-08T09:57:39;93931.56;;;21.46;27.54
76084;BME280;64789;0.000;0.000;2023-10-08T10:00:05;93928.59;;;21.44;27.97
76084;BME280;64789;0.000;0.000;2023-10-08T10:02:41;93928.88;;;21.36;27.67
76084;BME280;64789;0.000;0.000;2023-10-08T10:05:11;93935.03;;;21.33;27.79
76084;BME280;64789;0.000;0.000;2023-10-08T10:07:37;93934.06;;;21.28;27.69
76084;BME280;64789;0.000;0.000;2023-10-08T10:10:24;93926.44;;;21.19;28.86
76084;BME280;64789;0.000;0.000;2023-10-08T10:12:51;93917.81;;;21.42;26.97
76084;BME280;64789;0.000;0.000;2023-10-08T10:15:19;93919.84;;;21.65;27.86
76084;BME280;64789;0.000;0.000;2023-10-08T10:17:46;93912.09;;;21.91;27.05
76084;BME280;64789;0.000;0.000;2023-10-08T10:20:12;93917.59;;;21.75;27.96
76084;BME280;64789;0.000;0.000;2023-10-08T10:22:41;93913.50;;;21.78;27.07
76084;BME280;64789;0.000;0.000;2023-10-08T10:25:09;93912.00;;;21.77;27.29
76084;BME280;64789;0.000;0.000;2023-10-08T10:30:21;93909.75;;;21.87;27.90
76084;BME280;64789;0.000;0.000;2023-10-08T10:32:52;93903.13;;;21.96;27.80
76084;BME280;64789;0.000;0.000;2023-10-08T10:35:18;93899.00;;;22.24;27.29
76084;BME280;64789;0.000;0.000;2023-10-08T10:37:48;93898.19;;;22.36;27.51
76084;BME280;64789;0.000;0.000;2023-10-08T10:40:20;93895.66;;;22.42;27.40
76084;BME280;64789;0.000;0.000;2023-10-08T10:42:56;93879.22;;;22.54;27.05
76084;BME280;64789;0.000;0.000;2023-10-08T10:45:22;93886.09;;;22.62;28.23
76084;BME280;64789;0.000;0.000;2023-10-08T10:48:07;93873.13;;;22.73;26.64
76084;BME280;64789;0.000;0.000;2023-10-08T10:50:48;93872.69;;;22.92;26.98
76084;BME280;64789;0.000;0.000;2023-10-08T10:53:35;93870.38;;;23.02;26.46
76084;BME280;64789;0.000;0.000;2023-10-08T10:56:30;93870.03;;;23.10;26.49
76084;BME280;64789;0.000;0.000;2023-10-08T10:58:59;93868.22;;;23.16;27.08
76084;BME280;64789;0.000;0.000;2023-10-08T11:01:28;93864.88;;;23.06;27.16
76084;BME280;64789;0.000;0.000;2023-10-08T11:04:10;93862.25;;;23.10;26.85
76084;BME280;64789;0.000;0.000;2023-10-08T11:06:44;93849.78;;;23.04;26.98
76084;BME280;64789;0.000;0.000;2023-10-08T11:09:12;93841.00;;;23.13;27.50
76084;BME280;64789;0.000;0.000;2023-10-08T11:11:42;93854.69;;;23.30;27.42
76084;BME280;64789;0.000;0.000;2023-10-08T11:14:11;93855.03;;;23.23;27.38
76084;BME280;64789;0.000;0.000;2023-10-08T11:16:44;93846.66;;;23.27;27.34
76084;BME280;64789;0.000;0.000;2023-10-08T11:19:11;93848.34;;;23.32;27.99
76084;BME280;64789;0.000;0.000;2023-10-08T11:21:49;93842.66;;;23.32;27.70
76084;BME280;64789;0.000;0.000;2023-10-08T11:24:26;93839.78;;;23.32;28.21
76084;BME280;64789;0.000;0.000;2023-10-08T11:26:53;93838.75;;;23.39;28.05
76084;BME280;64789;0.000;0.000;2023-10-08T11:29:37;93826.56;;;23.52;27.61
76084;BME280;64789;0.000;0.000;2023-10-08T11:32:04;93844.59;;;23.57;27.27
76084;BME280;64789;0.000;0.000;2023-10-08T11:34:32;93837.91;;;23.66;27.10
76084;BME280;64789;0.000;0.000;2023-10-08T11:37:04;93821.22;;;23.60;27.75
76084;BME280;64789;0.000;0.000;2023-10-08T11:39:39;93818.38;;;23.60;27.45
76084;BME280;64789;0.000;0.000;2023-10-08T11:42:10;93824.13;;;23.76;27.66
76084;BME280;64789;0.000;0.000;2023-10-08T11:45:11;93822.09;;;23.78;27.04
76084;BME280;64789;0.000;0.000;2023-10-08T11:47:43;93825.97;;;23.85;26.79
76084;BME280;64789;0.000;0.000;2023-10-08T11:50:11;93826.84;;;23.58;27.59
76084;BME280;64789;0.000;0.000;2023-10-08T11:52:41;93822.53;;;23.57;27.48
76084;BME280;64789;0.000;0.000;2023-10-08T11:55:10;93816.69;;;23.26;28.04
76084;BME280;64789;0.000;0.000;2023-10-08T11:57:50;93814.28;;;23.20;28.15
76084;BME280;64789;0.000;0.000;2023-10-08T12:00:16;93811.44;;;23.20;27.82
76084;BME280;64789;0.000;0.000;2023-10-08T12:02:47;93816.06;;;23.27;27.88
76084;BME280;64789;0.000;0.000;2023-10-08T12:05:13;93805.56;;;23.32;28.37
76084;BME280;64789;0.000;0.000;2023-10-08T12:07:46;93818.25;;;23.42;27.71
76084;BME280;64789;0.000;0.000;2023-10-08T12:10:12;93810.31;;;23.41;28.10
76084;BME280;64789;0.000;0.000;2023-10-08T12:12:39;93818.34;;;23.44;28.18
76084;BME280;64789;0.000;0.000;2023-10-08T12:15:06;93819.81;;;23.45;28.00
76084;BME280;64789;0.000;0.000;2023-10-08T12:17:34;93824.88;;;23.33;28.16
76084;BME280;64789;0.000;0.000;2023-10-08T12:20:05;93816.69;;;23.26;28.49
76084;BME280;64789;0.000;0.000;2023-10-08T12:22:51;93818.00;;;23.09;28.54
76084;BME280;64789;0.000;0.000;2023-10-08T12:25:16;93806.03;;;22.83;29.24
76084;BME280;64789;0.000;0.000;2023-10-08T12:27:42;93804.44;;;22.80;29.49
76084;BME280;64789;0.000;0.000;2023-10-08T12:30:09;93806.78;;;22.70;29.09
76084;BME280;64789;0.000;0.000;2023-10-08T12:32:36;93811.53;;;22.66;29.45
76084;BME280;64789;0.000;0.000;2023-10-08T12:35:05;93792.09;;;22.49;29.86
76084;BME280;64789;0.000;0.000;2023-10-08T12:37:41;93792.84;;;22.36;30.26
76084;BME280;64789;0.000;0.000;2023-10-08T12:40:09;93791.47;;;22.37;30.54
76084;BME280;64789;0.000;0.000;2023-10-08T12:42:53;93787.03;;;22.47;30.07
76084;BME280;64789;0.000;0.000;2023-10-08T12:45:19;93783.47;;;22.47;29.76
76084;BME280;64789;0.000;0.000;2023-10-08T12:47:51;93786.84;;;22.57;30.05
76084;BME280;64789;0.000;0.000;2023-10-08T12:50:17;93785.34;;;22.69;30.54
76084;BME280;64789;0.000;0.000;2023-10-08T12:52:48;93775.22;;;22.80;30.14
76084;BME280;64789;0.000;0.000;2023-10-08T12:55:29;93790.72;;;22.91;30.21
76084;BME280;64789;0.000;0.000;2023-10-08T12:57:56;93773.41;;;22.86;30.03
76084;BME280;64789;0.000;0.000;2023-10-08T13:00:31;93780.25;;;22.81;29.98
76084;BME280;64789;0.000;0.000;2023-10-08T13:02:57;93778.38;;;22.86;29.46
76084;BME280;64789;0.000;0.000;2023-10-08T13:05:23;93780.09;;;22.64;29.99
76084;BME280;64789;0.000;0.000;2023-10-08T13:07:54;93777.78;;;22.47;30.71
76084;BME280;64789;0.000;0.000;2023-10-08T13:10:21;93778.38;;;22.59;30.31
76084;BME280;64789;0.000;0.000;2023-10-08T13:12:49;93785.91;;;22.66;30.56
76084;BME280;64789;0.000;0.000;2023-10-08T13:15:15;93775.75;;;22.76;30.38
76084;BME280;64789;0.000;0.000;2023-10-08T13:17:41;93775.41;;;22.84;30.41
76084;BME280;64789;0.000;0.000;2023-10-08T13:20:11;93765.59;;;22.87;30.06
76084;BME280;64789;0.000;0.000;2023-10-08T13:22:40;93769.28;;;22.89;30.23
76084;BME280;64789;0.000;0.000;2023-10-08T13:25:06;93759.53;;;23.08;30.07
76084;BME280;64789;0.000;0.000;2023-10-08T13:27:32;93770.75;;;22.91;30.09
76084;BME280;64789;0.000;0.000;2023-10-08T13:29:58;93772.41;;;22.66;30.32
76084;BME280;64789;0.000;0.000;2023-10-08T13:32:25;93768.91;;;22.68;30.60
76084;BME280;64789;0.000;0.000;2023-10-08T13:34:51;93762.03;;;22.73;30.67
76084;BME280;64789;0.000;0.000;2023-10-08T13:37:17;93766.22;;;22.85;29.86
76084;BME280;64789;0.000;0.000;2023-10-08T13:39:43;93763.28;;;22.83;29.58